Архив погоды в Нальчике

Метеограмма Нальчик
Пятница, 27 Апреля
Время местн. Темп Ветер Видим Явления Облачность нижн/средн/верх Атм. давл. Влжн Точка росы ВНГО R Сост. почвы Tg s
Напр Скр Прв ур.ст ур.м изм
06:00 +11.2° З 3 - 20 км - ясно 725 763 -0.1 70% +6° более 2.5 км - Сухая (без трещин) - -
03:00 +11.2° З 2 - 10 км - ясно 725 763 -0.5 71% +6.1° более 2.5 км - - - -
00:00 +12.7° З 3 - 10 км - ясно 726 763 -0.5 71% +7.5° более 2.5 км - - - -
Четверг, 26 Апреля
Время местн. Темп Ветер Видим Явления Облачность нижн/средн/верх Атм. давл. Влжн Точка росы ВНГО R Сост. почвы Tg s
Напр Скр Прв ур.ст ур.м изм
21:00 +15° З 2 - 10 км - ясно 726 763 +0.8 66% +8.6° более 2.5 км - - - -
18:00 +23° С-В 3 - 20 км - ясно 725 761 +0.1 35% +6.7° более 2.5 км - - - -
15:00 +25° В 3 - 20 км - ясно 725 761 -0.9 30% +6.2° более 2.5 км - - - -
12:00 +23.4° В 4 - 20 км - ясно 726 762 -0.7 30% +4.8° более 2.5 км - - - -
09:00 +20.4° В 2 - 20 км - ясно 727 763 +0.4 32% +3.1° более 2.5 км - - - -
06:00 +10.5° З,Ю-З 2 - 20 км - ясно 726 764 -0.2 63% +3.7° более 2.5 км 0 Сухая (без трещин) +5° -
03:00 +9.1° З 2 - 1 км - ясно 727 765 -0.2 68% +3.5° более 2.5 км - - - -
00:00 +10.1° З 2 - 10 км - ясно 727 765 0 67% +4.3° более 2.5 км - - - -
Среда, 25 Апреля
Время местн. Темп Ветер Видим Явления Облачность нижн/средн/верх Атм. давл. Влжн Точка росы ВНГО R Сост. почвы Tg s
Напр Скр Прв ур.ст ур.м изм
21:00 +14.7° Ю-З 2 - 10 км - ясно 727 764 +0.8 50% +4.4° более 2.5 км - - - -
18:00 +20.6° В 3 - 20 км - переменная облачность 726 762 +0.1 30% +2.4° более 2.5 км 0 - - -
15:00 +22.2° В 2 - 20 км - переменная облачность 726 762 -0.3 22% -0.4° более 2.5 км - - - -
12:00 +20.6° В 3 - 20 км - переменная облачность 726 763 -0.8 27% +1.2° более 2.5 км - - - -
09:00 +17.3° В 2 - 20 км - переменная облачность 727 764 -0.3 35% +1.7° более 2.5 км - - - -
06:00 +8.6° Ю,Ю-З 3 - 20 км - переменная облачность 727 766 +0.3 60% +1.2° более 2.5 км - Сухая (без трещин) - -
03:00 +7.6° Ю-З 2 - 20 км - переменная облачность 727 765 -0.2 64% +1.3° более 2.5 км - - - -
00:00 +7.2° Ю-З 2 - 20 км - ясно 727 766 -1 70% +2.2° более 2.5 км - - - -
Вторник, 24 Апреля
Время местн. Темп Ветер Видим Явления Облачность нижн/средн/верх Атм. давл. Влжн Точка росы ВНГО R Сост. почвы Tg s
Напр Скр Прв ур.ст ур.м изм
21:00 +9.5° Ю-З 2 - 10 км - ясно 728 766 +0.8 66% +3.4° более 2.5 км - - - -
18:00 +16.1° Ю 1 - 10 км - переменная облачность 727 765 -0.4 32% -0.6° - - - - -
15:00 +16° Ю-В 1 - 10 км - облачно с прояснениями 728 765 -0.3 34% +0.2° 1.5 км - - - -
12:00 +13.5° З 2 - 10 км - преимущественно облачно 728 766 +0.3 42% +0.9° 1 км - - - -
09:00 +12.6° З 1 - 20 км - облачно с прояснениями 728 766 +1.1 52% +3° 1.5 км - - - -
06:00 +8.3° Ю 2 - 10 км - преимущественно облачно 727 765 +1 82% +5.4° 1.5 км - Влажная (без луж) - -
03:00 +8.6° штиль 0 - 10 км небо без изменений {ливневые осадки} облачно 726 764 +0.5 76% +4.6° 1 км - - - -